• Join FlightAware (Why Join?)
  • Login
  • US Flag 
11:10PM EDT


 

Airport Tracker/Info


-or-


 

Live Flight TrackerFlight Track Log ✈ EJA922 ✈ 02-Aug-2013 ✈ KAPC - KSJC

Flight Track Log - Related Links

Times and Time Zones

All times are in EDT time to prevent confusion due to time zone crossing. See the EJA922 flight status page for this flight to view local times or setup timezone preferences in your user account.

Time Position Orientation Groundspeed Altitude Reporting Facility
EDT Latitude Longitude Course Direction KTS MPH feet Rate Location/Type
10:05PM 38.1928 -122.2975 139° Southeast 227 261 1,000  Level Oakland Center
10:06PM 38.1744 -122.3972 257° West 266 306 4,400 3,300 Climbing Oakland Center
10:08PM 38.1558 -122.4900 256° West 271 312 7,800 2,220 Climbing Oakland Center
10:09PM 38.1367 -122.5853 256° West 279 321 9,000 540 Climbing Oakland Center
10:10PM 38.0744 -122.8322 254° West  Level FlightAware Approximate
10:10PM 38.1169 -122.6822 256° West 286 329 9,000  Level Oakland Center
10:11PM 38.0293 -122.8258 139° Southeast  Level FlightAware Approximate
10:11PM 38.0864 -122.7775 248° West 302 348 11,300  Level Oakland Center
10:12PM 37.9956 -122.7831 183° South 363 418 12,000 300 Climbing Oakland Center
10:13PM 37.8947 -122.6697 138° Southeast 416 479 12,000 60 Level Oakland Center
10:13PM 37.8500 -122.6167 137° Southeast 420 483 12,100  Climbing Northern Cal TRACON
10:14PM 37.7667 -122.5167 136° Southeast 420 483 12,000 -60 Descending Northern Cal TRACON
10:15PM 37.6667 -122.4333 147° Southeast 403 464 12,000  Level Northern Cal TRACON
10:16PM 37.6000 -122.3500 135° Southeast 307 353 12,000 -240 Level Northern Cal TRACON
10:17PM 37.5333 -122.3167 158° South 303 349 11,600 -600 Descending Northern Cal TRACON
10:18PM 37.4500 -122.2667 155° Southeast 299 344 10,800 -840 Descending Northern Cal TRACON
10:19PM 37.3833 -122.2167 149° Southeast 264 304 10,000 -780 Descending Northern Cal TRACON
10:20PM 37.3569 -122.1811 133° Southeast 259 298 9,600 -1,080 Descending Oakland Center
10:21PM 37.3153 -122.1067 125° Southeast 259 298 8,300 -1,260 Descending Oakland Center
10:22PM 37.2744 -122.0358 126° Southeast 253 291 7,100 -1,200 Descending Oakland Center
10:23PM 37.2350 -121.9656 125° Southeast 249 287 5,900 -960 Descending Oakland Center
10:24PM 37.1983 -121.9028 126° Southeast 231 266 5,200 -840 Descending Oakland Center
10:25PM 37.2133 -121.8442 72° East 208 239 4,300 -1,140 Descending Oakland Center
10:26PM 37.2542 -121.8094 34° Northeast 204 235 2,900 -1,260 Descending Oakland Center
10:27PM 37.2897 -121.8533 316° Northwest 187 215 1,800 -960 Descending Oakland Center
10:28PM 37.3214 -121.8869 320° Northwest 168 193 1,000 -840 Descending Oakland Center
10:29PM 37.3503 -121.9192 318° Northwest 134 154 200 -780 Descending Oakland Center